createdAt,value
2017-08-01T00:00:13.806Z,83.46
2017-08-01T00:00:41.950Z,83.46
2017-08-01T00:01:10.133Z,83.65
2017-08-01T00:01:38.107Z,84.23
2017-08-01T00:02:06.400Z,84.23
2017-08-01T00:02:34.752Z,84.46
2017-08-01T00:03:02.805Z,84.08
2017-08-01T00:03:30.836Z,84.27
2017-08-01T00:03:59.071Z,83.79
2017-08-01T00:04:27.052Z,83.5
2017-08-01T00:04:55.296Z,83.79
2017-08-01T00:05:23.422Z,83.5
2017-08-01T00:05:51.524Z,83.69
2017-08-01T00:06:19.670Z,83.5
2017-08-01T00:06:47.879Z,83.69
2017-08-01T00:07:15.980Z,84.08
2017-08-01T00:07:44.104Z,83.69
2017-08-01T00:08:12.153Z,83.89
2017-08-01T00:08:40.380Z,83.89
2017-08-01T00:09:08.499Z,83.5
2017-08-01T00:09:36.735Z,83.79
2017-08-01T00:10:04.963Z,83.69
2017-08-01T00:10:33.140Z,84.03
2017-08-01T00:11:01.344Z,84.23
2017-08-01T00:11:29.473Z,84.23
2017-08-01T00:11:57.616Z,84.03
2017-08-01T00:12:25.789Z,84.32
2017-08-01T00:12:53.760Z,84.89
2017-08-01T00:13:21.869Z,84.8
2017-08-01T00:13:50.262Z,84.89
2017-08-01T00:14:18.308Z,84.7
2017-08-01T00:14:46.394Z,84.99
2017-08-01T00:15:14.485Z,85.09
2017-08-01T00:15:42.629Z,85.09
2017-08-01T00:16:10.814Z,85.28
2017-08-01T00:16:38.910Z,85.28
2017-08-01T00:17:07.194Z,85.57
2017-08-01T00:17:35.382Z,85.57
2017-08-01T00:18:03.602Z,85.28
2017-08-01T00:18:31.693Z,85.66
2017-08-01T00:18:59.837Z,85.85
2017-08-01T00:19:28.043Z,85.66
2017-08-01T00:19:56.240Z,85.85
2017-08-01T00:20:24.261Z,86.14
2017-08-01T00:20:52.493Z,85.85
2017-08-01T00:21:20.725Z,86.04
2017-08-01T00:21:48.842Z,86.14
2017-08-01T00:22:17.065Z,86.23
2017-08-01T00:22:45.197Z,86.47
2017-08-01T00:23:13.312Z,86.33
2017-08-01T00:23:41.395Z,86.47
2017-08-01T00:24:09.451Z,86.52
2017-08-01T00:24:37.533Z,86.52
2017-08-01T00:25:05.647Z,86.47
2017-08-01T00:25:33.831Z,86.33
2017-08-01T00:26:02.702Z,86.52
2017-08-01T00:26:30.745Z,86.67
2017-08-01T00:26:58.976Z,86.76
2017-08-01T00:27:27.111Z,86.76
2017-08-01T00:27:55.194Z,87.19
2017-08-01T00:28:23.345Z,87
2017-08-01T00:28:51.429Z,87.24
2017-08-01T00:29:19.638Z,87.19
2017-08-01T00:29:47.705Z,86.86
2017-08-01T00:30:15.857Z,86.8
2017-08-01T00:30:43.864Z,87.15
2017-08-01T00:31:11.997Z,87.15
2017-08-01T00:31:40.264Z,87.62
2017-08-01T00:32:08.636Z,87.43
2017-08-01T00:32:36.625Z,87.53
2017-08-01T00:33:04.744Z,87.76
2017-08-01T00:33:32.907Z,87.24
2017-08-01T00:34:00.899Z,87.91
2017-08-01T00:34:28.843Z,87.82
2017-08-01T00:34:56.962Z,87.82
2017-08-01T00:35:25.065Z,88.29
2017-08-01T00:35:53.088Z,87.91
2017-08-01T00:36:21.198Z,88.39
2017-08-01T00:36:49.406Z,88.58
2017-08-01T00:37:17.735Z,89.06
2017-08-01T00:37:45.989Z,88.87
2017-08-01T00:38:14.206Z,88.58
2017-08-01T00:38:42.180Z,88.58
2017-08-01T00:39:10.263Z,88.77
2017-08-01T00:39:38.425Z,89.06
2017-08-01T00:40:06.660Z,89.06
2017-08-01T00:40:34.849Z,89.44
2017-08-01T00:41:02.913Z,89.92
2017-08-01T00:41:31.118Z,89.73
2017-08-01T00:41:59.325Z,89.82
2017-08-01T00:42:27.441Z,89.53
2017-08-01T00:42:55.539Z,90.01
2017-08-01T00:43:23.564Z,89.73
2017-08-01T00:43:51.741Z,90.2
2017-08-01T00:44:19.952Z,90.01
2017-08-01T00:44:48.176Z,90.11
2017-08-01T00:45:16.386Z,90.11
2017-08-01T00:45:44.523Z,89.92
2017-08-01T00:46:12.529Z,90.3
2017-08-01T00:46:40.754Z,90.11
2017-08-01T00:47:08.751Z,89.92
2017-08-01T00:47:37.073Z,90.11
2017-08-01T00:48:05.266Z,90.59
2017-08-01T00:48:33.287Z,90.92
2017-08-01T00:49:01.357Z,90.49
2017-08-01T00:49:29.363Z,90.64
2017-08-01T00:49:57.570Z,90.64
2017-08-01T00:50:25.774Z,90.73
2017-08-01T00:50:53.972Z,90.92
2017-08-01T00:51:21.883Z,91.02
2017-08-01T00:51:50.106Z,90.73
2017-08-01T00:52:18.132Z,90.83
2017-08-01T00:52:46.326Z,90.45
2017-08-01T00:53:14.521Z,90.73
2017-08-01T00:53:42.751Z,90.64
2017-08-01T00:54:10.891Z,91.3
2017-08-01T00:54:39.031Z,91.21
2017-08-01T00:55:07.239Z,90.92
2017-08-01T00:55:35.260Z,91.69
2017-08-01T00:56:03.357Z,91.02
2017-08-01T00:56:31.466Z,91.4
2017-08-01T00:56:59.697Z,91.21
2017-08-01T00:57:27.805Z,90.83
2017-08-01T00:57:55.929Z,91.59
2017-08-01T00:58:24.173Z,91.5
2017-08-01T00:58:52.358Z,91.3
2017-08-01T00:59:20.429Z,91.4
2017-08-01T00:59:48.599Z,92.07
2017-08-01T01:00:16.806Z,91.88
2017-08-01T01:00:45.040Z,91.59
2017-08-01T01:01:13.213Z,91.59
2017-08-01T01:01:41.408Z,91.69
2017-08-01T01:02:09.627Z,91.97
2017-08-01T01:02:37.924Z,92.07
2017-08-01T01:03:06.022Z,92.45
2017-08-01T01:03:34.194Z,92.16
2017-08-01T01:04:02.195Z,91.97
2017-08-01T01:04:30.294Z,92.55
2017-08-01T01:04:58.365Z,92.36
2017-08-01T01:05:26.536Z,92.55
2017-08-01T01:05:54.744Z,93.07
2017-08-01T01:06:22.814Z,92.69
2017-08-01T01:06:51.021Z,92.55
2017-08-01T01:07:19.121Z,93.12
2017-08-01T01:07:47.428Z,92.83
2017-08-01T01:08:15.578Z,93.41
2017-08-01T01:08:43.795Z,93.17
2017-08-01T01:09:11.990Z,93.36
2017-08-01T01:09:40.156Z,93.26
2017-08-01T01:10:08.205Z,93.12
2017-08-01T01:10:36.387Z,93.26
2017-08-01T01:11:04.643Z,93.84
2017-08-01T01:11:32.817Z,93.74
2017-08-01T01:12:01.055Z,93.65
2017-08-01T01:12:29.179Z,93.6
2017-08-01T01:12:57.462Z,93.7
2017-08-01T01:13:25.711Z,93.93
2017-08-01T01:13:53.797Z,93.74
2017-08-01T01:14:21.931Z,93.79
2017-08-01T01:14:49.985Z,93.55
2017-08-01T01:15:18.178Z,94.07
2017-08-01T01:15:46.314Z,94.41
2017-08-01T01:16:14.420Z,94.31
2017-08-01T01:16:42.453Z,93.65
2017-08-01T01:17:10.660Z,93.55
2017-08-01T01:17:38.845Z,94.22
2017-08-01T01:18:06.858Z,94.03
2017-08-01T01:18:34.888Z,93.93
2017-08-01T01:19:03.010Z,94.51
2017-08-01T01:19:30.919Z,94.12
2017-08-01T01:19:58.852Z,94.22
2017-08-01T01:20:26.950Z,94.79
2017-08-01T01:20:55.146Z,94.7
2017-08-01T01:21:23.261Z,94.6
2017-08-01T01:21:51.348Z,94.51
2017-08-01T01:22:19.499Z,94.51
2017-08-01T01:22:47.723Z,94.79
2017-08-01T01:23:15.888Z,94.51
2017-08-01T01:23:43.985Z,94.93
2017-08-01T01:24:12.228Z,95.46
2017-08-01T01:24:40.358Z,95.36
2017-08-01T01:25:08.248Z,95.22
2017-08-01T01:25:36.369Z,95.32
2017-08-01T01:26:04.590Z,95.36
2017-08-01T01:26:32.858Z,95.22
2017-08-01T01:27:01.261Z,95.41
2017-08-01T01:27:29.451Z,95.41
2017-08-01T01:27:57.785Z,95.61
2017-08-01T01:28:25.922Z,95.61
2017-08-01T01:28:54.041Z,95.61
2017-08-01T01:29:22.361Z,95.79
2017-08-01T01:29:50.448Z,95.61
2017-08-01T01:30:18.451Z,95.61
2017-08-01T01:30:46.604Z,95.41
2017-08-01T01:31:14.610Z,95.61
2017-08-01T01:31:42.860Z,95.22
2017-08-01T01:32:11.085Z,95.61
2017-08-01T01:32:39.226Z,95.51
2017-08-01T01:33:07.496Z,95.7
2017-08-01T01:33:35.539Z,95.79
2017-08-01T01:34:03.729Z,95.7
2017-08-01T01:34:31.918Z,95.98
2017-08-01T01:35:00.126Z,96.17
2017-08-01T01:35:28.457Z,96.27
2017-08-01T01:35:56.683Z,96.08
2017-08-01T01:36:24.773Z,95.89
2017-08-01T01:36:52.875Z,95.98
2017-08-01T01:37:20.993Z,96.27
2017-08-01T01:37:49.087Z,96.46
2017-08-01T01:38:17.303Z,97.03
2017-08-01T01:38:45.401Z,97.13
2017-08-01T01:39:13.444Z,97.71
2017-08-01T01:39:41.658Z,97.28
2017-08-01T01:40:09.888Z,97.47
2017-08-01T01:40:37.981Z,97.75
2017-08-01T01:41:06.071Z,97.85
2017-08-01T01:41:34.213Z,97.75
2017-08-01T01:42:02.412Z,98.13
2017-08-01T01:42:30.526Z,98.04
2017-08-01T01:42:58.860Z,98.33
2017-08-01T01:43:27.870Z,98.13
2017-08-01T01:43:55.902Z,98.08
2017-08-01T01:44:23.970Z,98.33
2017-08-01T01:44:52.107Z,97.66
2017-08-01T01:45:20.255Z,98.28
2017-08-01T01:45:48.338Z,98.08
2017-08-01T01:46:16.573Z,97.89
2017-08-01T01:46:44.546Z,98.37
2017-08-01T01:47:12.754Z,98.28
2017-08-01T01:47:40.853Z,98.08
2017-08-01T01:48:09.080Z,98.08
2017-08-01T01:48:37.088Z,98.37
2017-08-01T01:49:05.276Z,98.66
2017-08-01T01:49:33.498Z,98.75
2017-08-01T01:50:01.706Z,99.23
2017-08-01T01:50:29.867Z,98.94
2017-08-01T01:50:57.943Z,99.43
2017-08-01T01:51:26.179Z,99.62
2017-08-01T01:51:54.367Z,99.62
2017-08-01T01:52:22.439Z,99.8
2017-08-01T01:52:50.625Z,99.99
2017-08-01T01:53:18.919Z,99.99
2017-08-01T01:53:47.168Z,99.99
2017-08-01T01:54:15.137Z,99.99
2017-08-01T01:54:43.238Z,99.99
2017-08-01T01:55:11.279Z,99.99
2017-08-01T01:55:39.288Z,99.99
2017-08-01T01:56:07.434Z,99.99
2017-08-01T01:56:35.601Z,99.99
2017-08-01T01:57:03.674Z,99.99
2017-08-01T01:57:31.600Z,99.99
2017-08-01T01:57:59.785Z,99.99
2017-08-01T01:58:27.971Z,99.99
2017-08-01T01:58:56.188Z,99.99
2017-08-01T01:59:24.379Z,99.99
2017-08-01T01:59:52.585Z,99.99
2017-08-01T02:00:20.677Z,99.99
2017-08-01T02:00:48.760Z,99.99
2017-08-01T02:01:16.964Z,99.99
2017-08-01T02:01:44.983Z,99.99
2017-08-01T02:02:13.084Z,99.99
2017-08-01T02:02:41.281Z,99.99
2017-08-01T02:03:09.464Z,99.99
2017-08-01T02:03:37.649Z,99.99
2017-08-01T02:04:05.761Z,99.99
2017-08-01T02:04:33.917Z,99.99
2017-08-01T02:05:02.013Z,99.99
2017-08-01T02:05:30.042Z,99.99
2017-08-01T02:05:58.180Z,99.99
2017-08-01T02:06:26.273Z,99.99
2017-08-01T02:06:54.262Z,99.99
2017-08-01T02:07:22.463Z,99.99
2017-08-01T02:07:50.630Z,99.99
2017-08-01T02:08:19.078Z,99.99
2017-08-01T02:08:47.328Z,99.99
2017-08-01T02:09:15.448Z,99.99
2017-08-01T02:09:43.430Z,99.99
2017-08-01T02:10:11.631Z,99.99
2017-08-01T02:10:39.620Z,99.99
2017-08-01T02:11:07.695Z,99.99
2017-08-01T02:11:35.608Z,99.99
2017-08-01T02:12:03.875Z,99.99
2017-08-01T02:12:32.117Z,99.99
2017-08-01T02:13:00.202Z,99.99
2017-08-01T02:13:28.480Z,99.99
2017-08-01T02:13:56.518Z,99.99
2017-08-01T02:14:24.718Z,99.99
2017-08-01T02:14:52.731Z,99.99
2017-08-01T02:15:20.844Z,99.99
2017-08-01T02:15:49.013Z,99.99
2017-08-01T02:16:17.200Z,99.99
2017-08-01T02:16:45.324Z,99.99
2017-08-01T02:17:13.386Z,99.99
2017-08-01T02:17:41.556Z,99.99
2017-08-01T02:18:09.666Z,99.99
2017-08-01T02:18:37.832Z,99.99
2017-08-01T02:19:05.937Z,99.99
2017-08-01T02:19:34.069Z,99.99
2017-08-01T02:20:02.096Z,99.99
2017-08-01T02:20:30.241Z,99.99
2017-08-01T02:20:58.445Z,99.99
2017-08-01T02:21:26.790Z,99.99
2017-08-01T02:21:55.020Z,99.99
2017-08-01T02:22:23.059Z,99.99
2017-08-01T02:22:51.179Z,99.99
2017-08-01T02:23:19.420Z,99.99
2017-08-01T02:23:47.671Z,99.99
2017-08-01T02:24:15.829Z,99.99
2017-08-01T02:24:44.060Z,99.99
2017-08-01T02:25:12.157Z,99.99
2017-08-01T02:25:40.238Z,99.99
2017-08-01T02:26:08.451Z,99.99
2017-08-01T02:26:36.603Z,99.99
2017-08-01T02:27:04.739Z,99.99
2017-08-01T02:27:32.918Z,99.99
2017-08-01T02:28:00.927Z,99.99
2017-08-01T02:28:29.216Z,99.99
2017-08-01T02:28:57.354Z,99.99
2017-08-01T02:29:25.555Z,99.99
2017-08-01T02:29:53.659Z,99.99
2017-08-01T02:30:21.723Z,99.99
2017-08-01T02:30:49.928Z,99.99
2017-08-01T02:31:18.173Z,99.99
2017-08-01T02:31:46.338Z,99.99
2017-08-01T02:32:14.423Z,99.99
2017-08-01T02:32:42.336Z,99.99
2017-08-01T02:33:10.635Z,99.99
2017-08-01T02:33:38.919Z,99.99
2017-08-01T02:34:07.029Z,99.99
2017-08-01T02:34:35.122Z,99.99
2017-08-01T02:35:03.373Z,99.99
2017-08-01T02:35:31.558Z,99.99
2017-08-01T02:35:59.704Z,99.99
2017-08-01T02:36:27.904Z,99.99
2017-08-01T02:36:56.025Z,99.99
2017-08-01T02:37:24.051Z,99.99
2017-08-01T02:37:52.262Z,99.99
2017-08-01T02:38:20.395Z,99.99
2017-08-01T02:38:48.617Z,99.99
2017-08-01T02:39:16.686Z,99.99
2017-08-01T02:39:44.798Z,99.99
2017-08-01T02:40:12.981Z,99.99
2017-08-01T02:40:41.186Z,99.99
2017-08-01T02:41:09.325Z,99.99
2017-08-01T02:41:37.373Z,99.99
2017-08-01T02:42:05.592Z,99.99
2017-08-01T02:42:33.838Z,99.99
2017-08-01T02:43:01.941Z,99.99
2017-08-01T02:43:30.062Z,99.99
2017-08-01T02:43:58.143Z,99.99
2017-08-01T02:44:26.335Z,99.99
2017-08-01T02:44:54.473Z,99.99
2017-08-01T02:45:22.674Z,99.99
2017-08-01T02:45:50.794Z,99.99
2017-08-01T02:46:18.899Z,99.99
2017-08-01T02:46:47.014Z,99.99
2017-08-01T02:47:15.212Z,99.99
2017-08-01T02:47:43.373Z,99.99
2017-08-01T02:48:11.367Z,99.99
2017-08-01T02:48:39.610Z,99.99
2017-08-01T02:49:07.527Z,99.99
2017-08-01T02:49:35.659Z,99.99
2017-08-01T02:50:03.864Z,99.99
2017-08-01T02:50:31.856Z,99.99
2017-08-01T02:51:00.120Z,99.99
2017-08-01T02:51:28.191Z,99.99
2017-08-01T02:51:56.312Z,99.99
2017-08-01T02:52:24.491Z,99.99
2017-08-01T02:52:52.509Z,99.99
2017-08-01T02:53:20.682Z,99.99
2017-08-01T02:53:48.812Z,99.99
2017-08-01T02:54:17.048Z,99.99
2017-08-01T02:54:45.106Z,99.99
2017-08-01T02:55:13.215Z,99.99
2017-08-01T02:55:41.352Z,99.99
2017-08-01T02:56:09.551Z,99.99
2017-08-01T02:56:37.641Z,99.99
2017-08-01T02:57:05.809Z,99.99
2017-08-01T02:57:33.821Z,99.99
2017-08-01T02:58:01.952Z,99.99
2017-08-01T02:58:30.156Z,99.99
2017-08-01T02:58:58.510Z,99.99
2017-08-01T02:59:26.622Z,99.99
2017-08-01T02:59:54.754Z,99.99
2017-08-01T03:00:22.979Z,99.99
2017-08-01T03:00:51.086Z,99.99
2017-08-01T03:01:19.223Z,99.99
2017-08-01T03:01:47.294Z,99.99
2017-08-01T03:02:15.368Z,99.99
2017-08-01T03:02:43.453Z,99.99
2017-08-01T03:03:11.525Z,99.99
2017-08-01T03:03:39.713Z,99.99
2017-08-01T03:04:07.791Z,99.99
2017-08-01T03:04:35.969Z,99.99
2017-08-01T03:05:04.174Z,99.99
2017-08-01T03:05:32.265Z,99.99
2017-08-01T03:06:00.456Z,99.99
2017-08-01T03:06:28.656Z,99.99
2017-08-01T03:06:56.833Z,99.99
2017-08-01T03:07:24.986Z,99.99
2017-08-01T03:07:53.162Z,99.99
2017-08-01T03:08:21.368Z,99.99
2017-08-01T03:08:49.606Z,99.99
2017-08-01T03:09:17.768Z,99.99
2017-08-01T03:09:45.969Z,99.99
2017-08-01T03:10:14.080Z,99.99
2017-08-01T03:10:42.155Z,99.99
2017-08-01T03:11:10.269Z,99.99
2017-08-01T03:11:38.420Z,99.99
2017-08-01T03:12:06.581Z,99.99
2017-08-01T03:12:34.674Z,99.99
2017-08-01T03:13:02.858Z,99.99
2017-08-01T03:13:30.794Z,99.99
2017-08-01T03:13:59.069Z,99.99
2017-08-01T03:14:26.996Z,99.99
2017-08-01T03:14:55.186Z,99.99
2017-08-01T03:15:23.400Z,99.99
2017-08-01T03:15:51.605Z,99.99
2017-08-01T03:16:19.792Z,99.99
2017-08-01T03:16:47.888Z,99.99
2017-08-01T03:17:15.873Z,99.99
2017-08-01T03:17:44.050Z,99.99
2017-08-01T03:18:12.132Z,99.99
2017-08-01T03:18:40.275Z,99.99
2017-08-01T03:19:08.528Z,99.99
2017-08-01T03:19:36.563Z,99.99
2017-08-01T03:20:04.770Z,99.99
2017-08-01T03:20:32.773Z,99.99
2017-08-01T03:21:00.940Z,99.99
2017-08-01T03:21:29.044Z,99.99
2017-08-01T03:21:57.145Z,99.99
2017-08-01T03:22:25.272Z,99.99
2017-08-01T03:22:53.260Z,99.99
2017-08-01T03:23:21.377Z,99.99
2017-08-01T03:23:49.488Z,99.99
2017-08-01T03:24:17.613Z,99.99
2017-08-01T03:24:45.787Z,99.99
2017-08-01T03:25:13.957Z,99.99
2017-08-01T03:25:42.149Z,99.99
2017-08-01T03:26:10.254Z,99.99
2017-08-01T03:26:38.459Z,99.99
2017-08-01T03:27:06.630Z,99.99
2017-08-01T03:27:34.665Z,99.99
2017-08-01T03:28:02.790Z,99.99
2017-08-01T03:28:30.907Z,99.99
2017-08-01T03:28:58.938Z,99.99
2017-08-01T03:29:27.292Z,99.99
2017-08-01T03:29:55.447Z,99.99
2017-08-01T03:30:23.629Z,99.99
2017-08-01T03:30:51.859Z,99.99
2017-08-01T03:31:20.056Z,99.99
2017-08-01T03:31:48.271Z,99.99
2017-08-01T03:32:16.444Z,99.99
2017-08-01T03:32:44.659Z,99.99
2017-08-01T03:33:12.936Z,99.99
2017-08-01T03:33:41.104Z,99.99
2017-08-01T03:34:09.404Z,99.99
2017-08-01T03:34:37.586Z,99.99
2017-08-01T03:35:05.756Z,99.99
2017-08-01T03:35:34.035Z,99.99
2017-08-01T03:36:02.050Z,99.99
2017-08-01T03:36:30.241Z,99.99
2017-08-01T03:36:58.362Z,99.99
2017-08-01T03:37:26.514Z,99.99
2017-08-01T03:37:54.680Z,99.99
2017-08-01T03:38:22.671Z,99.99
2017-08-01T03:38:50.794Z,99.99
2017-08-01T03:39:18.994Z,99.99
2017-08-01T03:39:46.927Z,99.99
2017-08-01T03:40:15.127Z,99.99
2017-08-01T03:40:43.328Z,99.99
2017-08-01T03:41:11.444Z,99.99
2017-08-01T03:41:39.318Z,99.99
2017-08-01T03:42:07.401Z,99.99
2017-08-01T03:42:35.317Z,99.99
2017-08-01T03:43:03.418Z,99.99
2017-08-01T03:43:31.536Z,99.99
2017-08-01T03:43:59.651Z,99.99
2017-08-01T03:44:27.911Z,99.99
2017-08-01T03:44:56.140Z,99.99
2017-08-01T03:45:24.318Z,99.99
2017-08-01T03:45:52.382Z,99.99
2017-08-01T03:46:20.628Z,99.99
2017-08-01T03:46:48.781Z,99.99
2017-08-01T03:47:16.998Z,99.99
2017-08-01T03:47:45.091Z,99.99
2017-08-01T03:48:13.360Z,99.99
2017-08-01T03:48:41.471Z,99.99
2017-08-01T03:49:09.616Z,99.99
2017-08-01T03:49:37.899Z,99.99
2017-08-01T03:50:06.084Z,99.99
2017-08-01T03:50:34.362Z,99.99
2017-08-01T03:51:02.590Z,99.99
2017-08-01T03:51:30.762Z,99.99
2017-08-01T03:51:58.974Z,99.99
2017-08-01T03:52:27.035Z,99.99
2017-08-01T03:52:55.185Z,99.99
2017-08-01T03:53:23.280Z,99.99
2017-08-01T03:53:51.210Z,99.99
2017-08-01T03:54:19.542Z,99.99
2017-08-01T03:54:47.694Z,99.99
2017-08-01T03:55:15.863Z,99.99
2017-08-01T03:55:43.906Z,99.99
2017-08-01T03:56:12.105Z,99.99
2017-08-01T03:56:40.278Z,99.99
2017-08-01T03:57:08.458Z,99.99
2017-08-01T03:57:36.563Z,99.99
2017-08-01T03:58:04.775Z,99.99
2017-08-01T03:58:33.036Z,99.99
2017-08-01T03:59:01.046Z,99.99
2017-08-01T03:59:29.388Z,99.99
2017-08-01T03:59:57.391Z,99.99
2017-08-01T04:00:25.497Z,99.99
2017-08-01T04:00:53.704Z,99.99
2017-08-01T04:01:21.886Z,99.99
2017-08-01T04:01:50.121Z,99.99
2017-08-01T04:02:18.149Z,99.99
2017-08-01T04:02:46.115Z,99.99
2017-08-01T04:03:14.242Z,99.99
2017-08-01T04:03:42.461Z,99.99
2017-08-01T04:04:10.668Z,99.99
2017-08-01T04:04:38.883Z,99.99
2017-08-01T04:05:07.128Z,99.99
2017-08-01T04:05:35.235Z,99.99
2017-08-01T04:06:03.327Z,99.99
2017-08-01T04:06:31.544Z,99.99
2017-08-01T04:06:59.735Z,99.99
2017-08-01T04:07:27.806Z,99.99
2017-08-01T04:07:55.885Z,99.99
2017-08-01T04:08:24.055Z,99.99
2017-08-01T04:08:52.137Z,99.99
2017-08-01T04:09:20.309Z,99.99
2017-08-01T04:09:48.534Z,99.99
2017-08-01T04:10:16.692Z,99.99
2017-08-01T04:10:44.693Z,99.99
2017-08-01T04:11:12.819Z,99.99
2017-08-01T04:11:41.042Z,99.99
2017-08-01T04:12:09.254Z,99.99
2017-08-01T04:12:37.451Z,99.99
2017-08-01T04:13:05.657Z,99.99
2017-08-01T04:13:33.878Z,99.99
2017-08-01T04:14:01.996Z,99.99
2017-08-01T04:14:30.279Z,99.99
2017-08-01T04:14:58.528Z,99.99
2017-08-01T04:15:26.693Z,99.99
2017-08-01T04:15:54.931Z,99.99
2017-08-01T04:16:23.008Z,99.99
2017-08-01T04:16:51.088Z,99.99
2017-08-01T04:17:19.263Z,99.99
2017-08-01T04:17:47.402Z,99.99
2017-08-01T04:18:15.626Z,99.99
2017-08-01T04:18:43.830Z,99.99
2017-08-01T04:19:12.035Z,99.99
2017-08-01T04:19:40.335Z,99.99
2017-08-01T04:20:08.256Z,99.99
2017-08-01T04:20:36.439Z,99.99
2017-08-01T04:21:04.470Z,99.99
2017-08-01T04:21:32.683Z,99.99
2017-08-01T04:22:00.860Z,99.99
2017-08-01T04:22:29.043Z,99.99
2017-08-01T04:22:57.161Z,99.99
2017-08-01T04:23:25.254Z,99.99
2017-08-01T04:23:53.474Z,99.99
2017-08-01T04:24:21.529Z,99.99
2017-08-01T04:24:49.856Z,99.99
2017-08-01T04:25:17.860Z,99.99
2017-08-01T04:25:46.001Z,99.99
2017-08-01T04:26:13.995Z,99.99
2017-08-01T04:26:42.137Z,99.99
2017-08-01T04:27:10.214Z,99.99
2017-08-01T04:27:38.255Z,99.99
2017-08-01T04:28:06.355Z,99.99
2017-08-01T04:28:34.534Z,99.99
2017-08-01T04:29:02.556Z,99.99
2017-08-01T04:29:30.668Z,99.99
2017-08-01T04:29:58.908Z,99.99
2017-08-01T04:30:27.103Z,99.99
2017-08-01T04:30:55.134Z,99.99
2017-08-01T04:31:23.304Z,99.99
2017-08-01T04:31:51.529Z,99.99
2017-08-01T04:32:19.543Z,99.99
2017-08-01T04:32:47.687Z,99.99
2017-08-01T04:33:15.798Z,99.99
2017-08-01T04:33:43.836Z,99.99
2017-08-01T04:34:11.982Z,99.99
2017-08-01T04:34:40.184Z,99.99
2017-08-01T04:35:08.296Z,99.99
2017-08-01T04:35:36.494Z,99.99
2017-08-01T04:36:04.704Z,99.99
2017-08-01T04:36:32.797Z,99.99
2017-08-01T04:37:01.034Z,99.99
2017-08-01T04:37:29.260Z,99.99
2017-08-01T04:37:57.447Z,99.99
2017-08-01T04:38:25.633Z,99.99
2017-08-01T04:38:53.755Z,99.99
2017-08-01T04:39:21.790Z,99.99
2017-08-01T04:39:50.127Z,99.99
2017-08-01T04:40:18.330Z,99.99
2017-08-01T04:40:46.330Z,99.99
2017-08-01T04:41:14.444Z,99.99
2017-08-01T04:41:42.558Z,99.99
2017-08-01T04:42:10.735Z,99.99
2017-08-01T04:42:38.895Z,99.99
2017-08-01T04:43:07.097Z,99.99
2017-08-01T04:43:35.282Z,99.99
2017-08-01T04:44:03.412Z,99.99
2017-08-01T04:44:31.592Z,99.99
2017-08-01T04:44:59.903Z,99.99
2017-08-01T04:45:27.982Z,99.99
2017-08-01T04:45:56.065Z,99.99
2017-08-01T04:46:24.288Z,99.99
2017-08-01T04:46:52.489Z,99.99
2017-08-01T04:47:20.721Z,99.99
2017-08-01T04:47:48.877Z,99.99
2017-08-01T04:48:17.126Z,99.99
2017-08-01T04:48:45.160Z,99.99
2017-08-01T04:49:13.363Z,99.99
2017-08-01T04:49:41.478Z,99.99
2017-08-01T04:50:09.488Z,99.99
2017-08-01T04:50:37.388Z,99.99
2017-08-01T04:51:05.595Z,99.99
2017-08-01T04:51:33.697Z,99.99
2017-08-01T04:52:01.936Z,99.99
2017-08-01T04:52:30.148Z,99.99
2017-08-01T04:52:58.360Z,99.99
2017-08-01T04:53:26.523Z,99.99
2017-08-01T04:53:54.716Z,99.99
2017-08-01T04:54:22.833Z,99.99
2017-08-01T04:54:51.005Z,99.99
2017-08-01T04:55:19.190Z,99.99
2017-08-01T04:55:47.385Z,99.99
2017-08-01T04:56:15.497Z,99.99
2017-08-01T04:56:43.594Z,99.99
2017-08-01T04:57:11.782Z,99.99
2017-08-01T04:57:39.858Z,99.99
2017-08-01T04:58:07.865Z,99.99
2017-08-01T04:58:36.039Z,99.99
2017-08-01T04:59:04.141Z,99.99
2017-08-01T04:59:32.352Z,99.99
2017-08-01T05:00:00.663Z,99.99
2017-08-01T05:00:28.635Z,99.99
2017-08-01T05:00:56.793Z,99.99
2017-08-01T05:01:24.956Z,99.99
2017-08-01T05:01:52.842Z,99.99
2017-08-01T05:02:20.970Z,99.99
2017-08-01T05:02:49.154Z,99.99
2017-08-01T05:03:17.356Z,99.99
2017-08-01T05:03:45.514Z,99.99
2017-08-01T05:04:13.721Z,99.99
2017-08-01T05:04:41.821Z,99.99
2017-08-01T05:05:10.224Z,99.99
2017-08-01T05:05:38.319Z,99.99
2017-08-01T05:06:06.424Z,99.99
2017-08-01T05:06:34.496Z,99.99
2017-08-01T05:07:02.615Z,99.99
2017-08-01T05:07:30.890Z,99.99
2017-08-01T05:07:59.100Z,99.99
2017-08-01T05:08:27.174Z,99.99
2017-08-01T05:08:55.240Z,99.99
2017-08-01T05:09:23.382Z,99.99
2017-08-01T05:09:51.437Z,99.99
2017-08-01T05:10:19.709Z,99.99
2017-08-01T05:10:47.933Z,99.99
2017-08-01T05:11:15.899Z,99.99
2017-08-01T05:11:43.988Z,99.99
2017-08-01T05:12:12.176Z,99.99
2017-08-01T05:12:40.357Z,99.99
2017-08-01T05:13:08.478Z,99.99
2017-08-01T05:13:36.666Z,99.99
2017-08-01T05:14:04.834Z,99.99
2017-08-01T05:14:32.945Z,99.99
2017-08-01T05:15:00.973Z,99.99
2017-08-01T05:15:29.249Z,99.99
2017-08-01T05:15:57.269Z,99.99
2017-08-01T05:16:25.408Z,99.99
2017-08-01T05:16:53.535Z,99.99
2017-08-01T05:17:21.656Z,99.99
2017-08-01T05:17:49.672Z,99.99
2017-08-01T05:18:17.870Z,99.99
2017-08-01T05:18:45.872Z,99.99
2017-08-01T05:19:14.047Z,99.99
2017-08-01T05:19:42.241Z,99.99
2017-08-01T05:20:10.641Z,99.99
2017-08-01T05:20:38.731Z,99.99
2017-08-01T05:21:06.936Z,99.99
2017-08-01T05:21:35.149Z,99.99
2017-08-01T05:22:03.265Z,99.99
2017-08-01T05:22:31.482Z,99.99
2017-08-01T05:22:59.592Z,99.99
2017-08-01T05:23:27.701Z,99.99
2017-08-01T05:23:55.817Z,99.99
2017-08-01T05:24:23.948Z,99.99
2017-08-01T05:24:52.097Z,99.99
2017-08-01T05:25:20.184Z,99.99
2017-08-01T05:25:48.179Z,99.99
2017-08-01T05:26:16.258Z,99.99
2017-08-01T05:26:44.372Z,99.99
2017-08-01T05:27:12.353Z,99.99
2017-08-01T05:27:40.444Z,99.99
2017-08-01T05:28:08.428Z,99.99
2017-08-01T05:28:36.419Z,99.99
2017-08-01T05:29:04.523Z,99.99
2017-08-01T05:29:32.599Z,99.99
2017-08-01T05:30:00.601Z,99.99
2017-08-01T05:30:28.718Z,99.99
2017-08-01T05:30:56.936Z,99.99
2017-08-01T05:31:24.938Z,99.99
2017-08-01T05:31:53.096Z,99.99
2017-08-01T05:32:21.096Z,99.99
2017-08-01T05:32:49.275Z,99.99
2017-08-01T05:33:17.376Z,99.99
2017-08-01T05:33:45.440Z,99.99
2017-08-01T05:34:13.449Z,99.99
2017-08-01T05:34:41.599Z,99.99
2017-08-01T05:35:09.765Z,99.99
2017-08-01T05:35:37.966Z,99.99
2017-08-01T05:36:06.124Z,99.99
2017-08-01T05:36:34.167Z,99.99
2017-08-01T05:37:02.182Z,99.99
2017-08-01T05:37:30.314Z,99.99
2017-08-01T05:37:58.519Z,99.99
2017-08-01T05:38:26.700Z,99.99
2017-08-01T05:38:54.801Z,99.99
2017-08-01T05:39:22.966Z,99.99
2017-08-01T05:39:51.228Z,99.99
2017-08-01T05:40:19.513Z,99.99
2017-08-01T05:40:47.717Z,99.99
2017-08-01T05:41:15.955Z,99.99
2017-08-01T05:41:44.170Z,99.99
2017-08-01T05:42:12.334Z,99.99
2017-08-01T05:42:40.481Z,99.99
2017-08-01T05:43:08.564Z,99.99
2017-08-01T05:43:36.793Z,99.99
2017-08-01T05:44:04.995Z,99.99
2017-08-01T05:44:33.185Z,99.99
2017-08-01T05:45:01.413Z,99.99
2017-08-01T05:45:29.529Z,99.99
2017-08-01T05:45:57.536Z,99.99
2017-08-01T05:46:25.725Z,99.99
2017-08-01T05:46:53.995Z,99.99
2017-08-01T05:47:21.999Z,99.99
2017-08-01T05:47:50.180Z,99.99
2017-08-01T05:48:18.350Z,99.99
2017-08-01T05:48:46.435Z,99.99
2017-08-01T05:49:14.631Z,99.99
2017-08-01T05:49:42.689Z,99.99
2017-08-01T05:50:10.872Z,99.99
2017-08-01T05:50:39.157Z,99.99
2017-08-01T05:51:07.247Z,99.99
2017-08-01T05:51:35.373Z,99.99
2017-08-01T05:52:03.507Z,99.99
2017-08-01T05:52:31.537Z,99.99
2017-08-01T05:52:59.772Z,99.99
2017-08-01T05:53:27.761Z,99.99
2017-08-01T05:53:55.854Z,99.99
2017-08-01T05:54:23.954Z,99.99
2017-08-01T05:54:52.127Z,99.99
2017-08-01T05:55:20.344Z,99.99
2017-08-01T05:55:48.551Z,99.99
2017-08-01T05:56:16.763Z,99.99
2017-08-01T05:56:44.949Z,99.99
2017-08-01T05:57:13.117Z,99.99
2017-08-01T05:57:41.127Z,99.99
2017-08-01T05:58:09.266Z,99.99
2017-08-01T05:58:37.390Z,99.99
2017-08-01T05:59:05.609Z,99.99
2017-08-01T05:59:33.752Z,99.99
2017-08-01T06:00:01.847Z,99.99
2017-08-01T06:00:29.870Z,99.99
2017-08-01T06:00:58.184Z,99.99
2017-08-01T06:01:26.280Z,99.99
2017-08-01T06:01:54.501Z,99.99
2017-08-01T06:02:22.708Z,99.99
2017-08-01T06:02:50.868Z,99.99